createdAt,value
2018-01-15T00:01:47.118Z,102429.30
2018-01-15T00:04:48.089Z,102436.10
2018-01-15T00:07:49.117Z,102428.18
2018-01-15T00:10:50.079Z,102416.74
2018-01-15T00:13:51.118Z,102409.93
2018-01-15T00:16:52.163Z,102411.29
2018-01-15T00:19:53.115Z,102413.21
2018-01-15T00:22:54.188Z,102418.66
2018-01-15T00:25:55.126Z,102430.13
2018-01-15T00:28:56.076Z,102417.05
2018-01-15T00:31:57.059Z,102421.68
2018-01-15T00:34:58.075Z,102435.05
2018-01-15T00:37:59.078Z,102427.39
2018-01-15T00:41:00.124Z,102414.06
2018-01-15T00:44:02.147Z,102412.16
2018-01-15T00:47:03.139Z,102371.65
2018-01-15T00:50:04.144Z,102411.89
2018-01-15T00:53:05.175Z,102412.41
2018-01-15T00:56:06.187Z,102413.80
2018-01-15T00:59:07.174Z,102420.89
2018-01-15T01:02:08.195Z,102416.25
2018-01-15T01:05:10.198Z,102420.08
2018-01-15T01:08:11.126Z,102418.44
2018-01-15T01:11:12.107Z,102416.24
2018-01-15T01:14:13.149Z,102417.06
2018-01-15T01:17:14.147Z,102413.24
2018-01-15T01:20:15.182Z,102406.16
2018-01-15T01:23:16.147Z,102392.26
2018-01-15T01:26:17.363Z,102387.65
2018-01-15T01:29:18.283Z,102391.72
2018-01-15T01:32:19.310Z,102389.56
2018-01-15T01:35:20.327Z,102381.37
2018-01-15T01:38:21.313Z,102372.13
2018-01-15T01:41:22.240Z,102372.92
2018-01-15T01:44:23.215Z,102369.40
2018-01-15T01:47:24.216Z,102377.58
2018-01-15T01:50:25.212Z,102371.62
2018-01-15T01:53:26.263Z,102369.72
2018-01-15T01:56:27.219Z,102369.72
2018-01-15T01:59:28.176Z,102371.90
2018-01-15T02:02:29.183Z,102369.70
2018-01-15T02:05:31.174Z,102369.73
2018-01-15T02:08:33.187Z,102368.37
2018-01-15T02:11:34.159Z,102358.56
2018-01-15T02:14:35.171Z,102357.77
2018-01-15T02:17:36.288Z,102356.13
2018-01-15T02:20:37.251Z,102346.87
2018-01-15T02:23:38.274Z,102347.96
2018-01-15T02:26:39.251Z,102345.76
2018-01-15T02:29:40.255Z,102352.87
2018-01-15T02:32:41.279Z,102359.93
2018-01-15T02:35:42.279Z,102356.11
2018-01-15T02:38:43.203Z,102355.87
2018-01-15T02:41:44.211Z,102357.50
2018-01-15T02:44:45.151Z,102359.39
2018-01-15T02:47:46.161Z,102353.67
2018-01-15T02:50:47.123Z,102346.86
2018-01-15T02:53:48.124Z,102352.04
2018-01-15T02:56:49.067Z,102340.61
2018-01-15T02:59:50.058Z,102339.81
2018-01-15T03:02:51.058Z,102345.26
2018-01-15T03:05:51.991Z,102329.73
2018-01-15T03:08:53.006Z,102329.17
2018-01-15T03:11:54.049Z,102321.83
2018-01-15T03:14:55.039Z,102319.36
2018-01-15T03:17:56.025Z,102318.29
2018-01-15T03:20:56.979Z,102324.81
2018-01-15T03:23:57.966Z,102321.54
2018-01-15T03:26:58.999Z,102311.22
2018-01-15T03:29:59.987Z,102310.95
2018-01-15T03:33:01.023Z,102306.02
2018-01-15T03:36:02.015Z,102310.40
2018-01-15T03:39:03.098Z,102311.20
2018-01-15T03:42:04.195Z,102307.93
2018-01-15T03:45:05.139Z,102303.85
2018-01-15T03:48:06.088Z,102298.68
2018-01-15T03:51:07.074Z,102291.59
2018-01-15T03:54:08.095Z,102293.26
2018-01-15T03:57:09.103Z,102292.15
2018-01-15T04:00:10.253Z,102289.15
2018-01-15T04:03:11.202Z,102291.08
2018-01-15T04:06:12.207Z,102278.82
2018-01-15T04:09:13.223Z,102268.18
2018-01-15T04:12:14.221Z,102268.18
2018-01-15T04:15:15.503Z,102262.47
2018-01-15T04:18:16.456Z,102261.94
2018-01-15T04:21:17.492Z,102244.22
2018-01-15T04:24:18.474Z,102247.52
2018-01-15T04:27:19.412Z,102257.04
2018-01-15T04:30:21.423Z,102262.23
2018-01-15T04:33:22.361Z,102256.51
2018-01-15T04:36:23.918Z,102238.81
2018-01-15T04:39:24.923Z,102238.24
2018-01-15T04:42:25.930Z,102222.20
2018-01-15T04:45:27.138Z,102224.65
2018-01-15T04:48:28.080Z,102223.29
2018-01-15T04:51:29.042Z,102220.29
2018-01-15T04:54:30.009Z,102219.51
2018-01-15T04:57:30.974Z,102217.57
2018-01-15T05:00:32.342Z,102220.29
2018-01-15T05:03:33.293Z,102217.84
2018-01-15T05:06:34.339Z,102217.02
2018-01-15T05:09:35.342Z,102212.64
2018-01-15T05:12:36.323Z,102217.53
2018-01-15T05:15:37.279Z,102208.81
2018-01-15T05:18:38.244Z,102198.98
2018-01-15T05:21:39.184Z,102199.54
2018-01-15T05:24:40.170Z,102191.34
2018-01-15T05:27:41.115Z,102200.86
2018-01-15T05:30:42.098Z,102200.53
2018-01-15T05:33:43.034Z,102200.21
2018-01-15T05:36:44.043Z,102210.79
2018-01-15T05:39:44.944Z,102206.11
2018-01-15T05:42:46.132Z,102201.73
2018-01-15T05:45:47.066Z,102204.43
2018-01-15T05:48:48.011Z,102190.47
2018-01-15T05:51:49.014Z,102197.29
2018-01-15T05:54:50.027Z,102196.99
2018-01-15T05:57:51.063Z,102191.24
2018-01-15T06:00:52.043Z,102181.39
2018-01-15T06:03:53.118Z,102180.00
2018-01-15T06:06:54.082Z,102182.95
2018-01-15T06:09:55.119Z,102188.63
2018-01-15T06:12:56.082Z,102180.14
2018-01-15T06:15:57.087Z,102183.66
2018-01-15T06:18:58.415Z,102171.92
2018-01-15T06:21:59.418Z,102169.19
2018-01-15T06:25:00.429Z,102164.79
2018-01-15T06:28:01.407Z,102163.96
2018-01-15T06:31:02.307Z,102165.59
2018-01-15T06:34:03.237Z,102156.04
2018-01-15T06:37:04.160Z,102156.30
2018-01-15T06:40:05.095Z,102149.18
2018-01-15T06:43:06.210Z,102145.09
2018-01-15T06:46:07.104Z,102145.35
2018-01-15T06:49:08.037Z,102148.04
2018-01-15T06:52:08.952Z,102150.24
2018-01-15T06:55:09.921Z,102150.19
2018-01-15T06:58:10.859Z,102155.07
2018-01-15T07:01:11.765Z,102156.44
2018-01-15T07:04:12.711Z,102159.44
2018-01-15T07:07:13.606Z,102146.36
2018-01-15T07:10:14.539Z,102153.44
2018-01-15T07:13:15.438Z,102156.17
2018-01-15T07:16:16.604Z,102152.61
2018-01-15T07:19:17.502Z,102166.25
2018-01-15T07:22:18.427Z,102168.19
2018-01-15T07:25:19.530Z,102161.68
2018-01-15T07:28:20.459Z,102160.31
2018-01-15T07:31:21.407Z,102161.41
2018-01-15T07:34:22.319Z,102168.76
2018-01-15T07:37:23.246Z,102165.50
2018-01-15T07:40:24.159Z,102109.62
2018-01-15T07:43:25.100Z,102166.30
2018-01-15T07:46:26.008Z,102152.13
2018-01-15T07:49:26.939Z,102146.14
2018-01-15T07:52:27.862Z,102143.94
2018-01-15T07:55:28.798Z,102140.95
2018-01-15T07:58:29.711Z,102140.95
2018-01-15T08:01:30.627Z,102136.54
2018-01-15T08:04:31.567Z,102127.00
2018-01-15T08:07:32.483Z,102123.96
2018-01-15T08:10:33.423Z,102124.22
2018-01-15T08:13:34.331Z,102122.07
2018-01-15T08:16:35.257Z,102123.95
2018-01-15T08:19:36.167Z,102119.56
2018-01-15T08:22:37.079Z,102115.19
2018-01-15T08:25:37.982Z,102114.62
2018-01-15T08:28:38.911Z,102113.25
2018-01-15T08:31:39.823Z,102115.15
2018-01-15T08:34:40.786Z,102113.21
2018-01-15T08:37:41.791Z,102110.21
2018-01-15T08:40:42.699Z,102108.53
2018-01-15T08:43:43.634Z,102102.81
2018-01-15T08:46:44.550Z,102087.80
2018-01-15T08:49:45.678Z,102086.38
2018-01-15T08:52:46.578Z,102076.84
2018-01-15T08:55:47.827Z,102076.57
2018-01-15T08:58:48.715Z,102074.10
2018-01-15T09:01:49.655Z,102071.37
2018-01-15T09:04:50.551Z,102061.82
2018-01-15T09:07:51.479Z,102061.24
2018-01-15T09:10:52.415Z,102063.71
2018-01-15T09:13:53.383Z,102057.72
2018-01-15T09:16:54.643Z,102041.88
2018-01-15T09:19:55.554Z,102037.78
2018-01-15T09:22:56.619Z,102031.53
2018-01-15T09:25:57.512Z,102037.53
2018-01-15T09:28:58.459Z,102034.79
2018-01-15T09:31:59.352Z,102030.17
2018-01-15T09:35:00.482Z,102017.88
2018-01-15T09:38:01.379Z,102020.61
2018-01-15T09:41:02.302Z,102015.42
2018-01-15T09:44:03.194Z,102010.49
2018-01-15T09:47:04.132Z,102008.59
2018-01-15T09:50:05.047Z,102014.85
2018-01-15T09:53:05.983Z,102008.86
2018-01-15T09:56:06.891Z,102003.66
2018-01-15T09:59:07.859Z,101994.10
2018-01-15T10:02:08.755Z,101990.80
2018-01-15T10:05:09.803Z,101987.81
2018-01-15T10:08:10.714Z,101979.04
2018-01-15T10:11:11.650Z,101959.40
2018-01-15T10:14:12.570Z,101958.83
2018-01-15T10:17:14.127Z,101953.63
2018-01-15T10:20:15.046Z,101948.15
2018-01-15T10:23:15.948Z,101936.98
2018-01-15T10:26:16.920Z,101936.40
2018-01-15T10:29:17.815Z,101935.88
2018-01-15T10:32:19.007Z,101952.52
2018-01-15T10:35:19.989Z,101944.34
2018-01-15T10:38:20.886Z,101944.90
2018-01-15T10:41:22.075Z,101925.80
2018-01-15T10:44:22.995Z,101916.51
2018-01-15T10:47:23.959Z,101908.31
2018-01-15T10:50:24.867Z,101893.83
2018-01-15T10:53:25.843Z,101879.65
2018-01-15T10:56:26.759Z,101874.20
2018-01-15T10:59:27.672Z,101875.24
2018-01-15T11:02:28.634Z,101865.43
2018-01-15T11:05:29.531Z,101860.80
2018-01-15T11:08:30.490Z,101858.86
2018-01-15T11:11:32.468Z,101834.87
2018-01-15T11:14:33.383Z,101825.58
2018-01-15T11:17:34.416Z,101820.90
2018-01-15T11:20:35.331Z,101802.11
2018-01-15T11:23:36.295Z,101795.76
2018-01-15T11:26:37.199Z,101794.40
2018-01-15T11:29:38.150Z,101787.04
2018-01-15T11:32:39.054Z,101778.28
2018-01-15T11:35:40.485Z,101770.09
2018-01-15T11:38:41.386Z,101766.83
2018-01-15T11:41:42.492Z,101761.37
2018-01-15T11:44:43.391Z,101759.42
2018-01-15T11:47:44.330Z,101751.24
2018-01-15T11:50:45.426Z,101740.89
2018-01-15T11:53:46.362Z,101737.32
2018-01-15T11:56:47.258Z,101734.60
2018-01-15T11:59:48.203Z,101738.16
2018-01-15T12:02:49.094Z,101722.89
2018-01-15T12:05:50.207Z,101716.06
2018-01-15T12:08:51.141Z,101708.41
2018-01-15T12:11:52.059Z,101699.70
2018-01-15T12:14:52.947Z,101695.02
2018-01-15T12:17:53.907Z,101680.59
2018-01-15T12:20:54.820Z,101672.93
2018-01-15T12:23:55.767Z,101656.55
2018-01-15T12:26:56.679Z,101649.72
2018-01-15T12:29:57.623Z,101649.52
2018-01-15T12:32:58.559Z,101642.11
2018-01-15T12:36:00.374Z,101638.01
2018-01-15T12:39:01.326Z,101626.32
2018-01-15T12:42:02.253Z,101618.12
2018-01-15T12:45:03.175Z,101611.30
2018-01-15T12:48:04.114Z,101603.65
2018-01-15T12:51:05.017Z,101598.19
2018-01-15T12:54:05.975Z,101591.94
2018-01-15T12:57:06.915Z,101582.64
2018-01-15T13:00:07.801Z,101575.56
2018-01-15T13:03:08.782Z,101555.53
2018-01-15T13:06:09.692Z,101551.36
2018-01-15T13:09:10.639Z,101547.52
2018-01-15T13:12:11.581Z,101534.38
2018-01-15T13:15:12.483Z,101541.46
2018-01-15T13:18:13.435Z,101530.21
2018-01-15T13:21:14.367Z,101529.10
2018-01-15T13:24:15.635Z,101529.86
2018-01-15T13:27:16.547Z,101523.76
2018-01-15T13:30:17.711Z,101513.09
2018-01-15T13:33:18.628Z,101496.56
2018-01-15T13:36:19.575Z,101491.38
2018-01-15T13:39:20.527Z,101479.43
2018-01-15T13:42:21.430Z,101476.97
2018-01-15T13:45:22.379Z,101465.56
2018-01-15T13:48:23.352Z,101453.27
2018-01-15T13:51:24.266Z,101454.10
2018-01-15T13:54:25.210Z,101439.62
2018-01-15T13:57:26.112Z,101425.72
2018-01-15T14:00:27.111Z,101416.16
2018-01-15T14:03:28.052Z,101407.97
2018-01-15T14:06:28.994Z,101400.90
2018-01-15T14:09:30.059Z,101393.54
2018-01-15T14:12:30.967Z,101383.98
2018-01-15T14:15:31.931Z,101372.23
2018-01-15T14:18:33.888Z,101353.38
2018-01-15T14:21:34.838Z,101340.85
2018-01-15T14:24:35.795Z,101322.32
2018-01-15T14:27:36.682Z,101306.72
2018-01-15T14:30:37.623Z,101299.90
2018-01-15T14:33:38.691Z,101282.74
2018-01-15T14:36:39.604Z,101217.94
2018-01-15T14:39:40.850Z,101249.74
2018-01-15T14:42:41.760Z,101231.15
2018-01-15T14:45:42.682Z,101226.04
2018-01-15T14:48:43.582Z,101216.74
2018-01-15T14:51:44.515Z,101206.40
2018-01-15T14:54:45.530Z,101213.76
2018-01-15T14:57:46.439Z,101198.74
2018-01-15T15:00:47.376Z,101176.12
2018-01-15T15:03:48.272Z,101165.75
2018-01-15T15:06:49.231Z,101154.84
2018-01-15T15:09:50.268Z,101150.98
2018-01-15T15:12:51.173Z,101142.55
2018-01-15T15:15:52.099Z,101137.33
2018-01-15T15:18:53.183Z,101133.25
2018-01-15T15:21:54.100Z,101130.23
2018-01-15T15:24:55.031Z,101125.58
2018-01-15T15:27:55.944Z,101118.22
2018-01-15T15:30:56.874Z,101123.10
2018-01-15T15:33:57.801Z,101111.64
2018-01-15T15:36:58.730Z,101108.91
2018-01-15T15:39:59.640Z,101109.41
2018-01-15T15:43:01.658Z,101105.31
2018-01-15T15:46:02.584Z,101114.86
2018-01-15T15:49:03.523Z,101109.94
2018-01-15T15:52:04.438Z,101098.24
2018-01-15T15:55:05.368Z,101095.75
2018-01-15T15:58:06.262Z,101082.11
2018-01-15T16:01:07.191Z,101087.57
2018-01-15T16:04:08.094Z,101093.81
2018-01-15T16:07:09.018Z,101089.47
2018-01-15T16:10:09.923Z,101082.11
2018-01-15T16:13:10.871Z,101080.16
2018-01-15T16:16:11.770Z,101067.88
2018-01-15T16:19:12.707Z,101067.88
2018-01-15T16:22:13.625Z,101065.15
2018-01-15T16:25:15.855Z,101058.91
2018-01-15T16:28:16.794Z,101054.23
2018-01-15T16:31:17.720Z,101047.40
2018-01-15T16:34:18.659Z,101043.07
2018-01-15T16:37:19.592Z,101040.58
2018-01-15T16:40:20.518Z,101020.70
2018-01-15T16:43:21.447Z,101020.94
2018-01-15T16:46:22.372Z,101001.25
2018-01-15T16:49:23.279Z,100982.73
2018-01-15T16:52:24.243Z,100966.59
2018-01-15T16:55:25.188Z,100963.04
2018-01-15T16:58:26.204Z,100943.93
2018-01-15T17:01:27.142Z,100924.28
2018-01-15T17:04:28.151Z,100904.35
2018-01-15T17:07:29.092Z,100893.43
2018-01-15T17:10:30.024Z,100887.09
2018-01-15T17:13:31.570Z,100878.91
2018-01-15T17:16:32.507Z,100876.18
2018-01-15T17:19:33.415Z,100870.97
2018-01-15T17:22:34.559Z,100860.29
2018-01-15T17:25:35.511Z,100857.56
2018-01-15T17:28:36.459Z,100857.80
2018-01-15T17:31:37.363Z,100859.99
2018-01-15T17:34:38.331Z,100853.70
2018-01-15T17:37:40.018Z,100852.58
2018-01-15T17:40:40.971Z,100851.46
2018-01-15T17:43:41.883Z,100848.73
2018-01-15T17:46:42.828Z,100852.29
2018-01-15T17:49:43.735Z,100848.19
2018-01-15T17:52:44.671Z,100844.88
2018-01-15T17:55:45.652Z,100833.72
2018-01-15T17:58:46.660Z,100828.84
2018-01-15T18:01:47.567Z,100817.34
2018-01-15T18:04:48.507Z,100813.00
2018-01-15T18:07:49.426Z,100814.95
2018-01-15T18:10:50.363Z,100812.22
2018-01-15T18:13:51.279Z,100807.06
2018-01-15T18:16:52.223Z,100810.38
2018-01-15T18:19:53.114Z,100802.49
2018-01-15T18:22:54.063Z,100797.03
2018-01-15T18:25:54.954Z,100791.91
2018-01-15T18:28:55.929Z,100779.23
2018-01-15T18:31:56.867Z,100769.43
2018-01-15T18:34:57.767Z,100761.79
2018-01-15T18:37:58.699Z,100769.91
2018-01-15T18:40:59.679Z,100763.33
2018-01-15T18:44:00.602Z,100754.55
2018-01-15T18:47:01.554Z,100754.79
2018-01-15T18:50:02.515Z,100745.48
2018-01-15T18:53:03.436Z,100743.57
2018-01-15T18:56:04.570Z,100734.02
2018-01-15T18:59:05.570Z,100730.17
2018-01-15T19:02:06.510Z,100730.17
2018-01-15T19:05:07.525Z,100723.34
2018-01-15T19:08:08.455Z,100707.21
2018-01-15T19:11:09.595Z,100700.68
2018-01-15T19:14:10.602Z,100688.74
2018-01-15T19:17:11.629Z,100679.36
2018-01-15T19:20:12.750Z,100669.87
2018-01-15T19:23:13.739Z,100667.25
2018-01-15T19:26:15.811Z,100654.15
2018-01-15T19:29:16.879Z,100650.93
2018-01-15T19:32:17.950Z,100629.18
2018-01-15T19:35:19.014Z,100624.26
2018-01-15T19:38:20.027Z,100604.68
2018-01-15T19:41:21.078Z,100592.75
2018-01-15T19:44:26.611Z,100579.34
2018-01-15T19:48:31.199Z,100575.40
2018-01-15T19:52:36.454Z,100564.78
2018-01-15T19:56:40.931Z,100547.99
2018-01-15T20:00:46.418Z,100543.89
2018-01-15T20:04:52.083Z,100537.85
2018-01-15T20:08:56.642Z,100539.32
2018-01-15T20:11:57.603Z,100532.26
2018-01-15T20:14:58.538Z,100531.91
2018-01-15T20:17:59.739Z,100526.22
2018-01-15T20:21:00.664Z,100513.86
2018-01-15T20:24:01.599Z,100517.80
2018-01-15T20:27:02.636Z,100512.34
2018-01-15T20:30:03.583Z,100487.53
2018-01-15T20:33:04.492Z,100509.06
2018-01-15T20:36:05.403Z,100505.51
2018-01-15T20:39:06.348Z,100489.49
2018-01-15T20:42:07.299Z,100479.93
2018-01-15T20:45:08.575Z,100478.33
2018-01-15T20:48:09.467Z,100471.51
2018-01-15T20:51:10.399Z,100468.43
2018-01-15T20:54:11.312Z,100475.01
2018-01-15T20:57:12.226Z,100463.55
2018-01-15T21:00:13.138Z,100458.40
2018-01-15T21:03:14.267Z,100451.34
2018-01-15T21:06:15.174Z,100457.70
2018-01-15T21:09:16.323Z,100452.00
2018-01-15T21:12:17.321Z,100439.49
2018-01-15T21:15:18.242Z,100451.77
2018-01-15T21:18:19.154Z,100447.60
2018-01-15T21:21:20.075Z,100446.31
2018-01-15T21:24:20.983Z,100433.08
2018-01-15T21:27:21.918Z,100435.19
2018-01-15T21:30:23.072Z,100432.11
2018-01-15T21:33:24.070Z,100433.55
2018-01-15T21:36:25.354Z,100434.08
2018-01-15T21:39:26.335Z,100424.59
2018-01-15T21:42:27.286Z,100421.39
2018-01-15T21:45:28.198Z,100412.50
2018-01-15T21:48:29.785Z,100414.22
2018-01-15T21:51:30.799Z,100410.19
2018-01-15T21:54:31.828Z,100392.58
2018-01-15T21:57:32.867Z,100399.24
2018-01-15T22:00:33.871Z,100393.55
2018-01-15T22:03:34.819Z,100392.53
2018-01-15T22:06:35.787Z,100392.41
2018-01-15T22:09:36.734Z,100397.93
2018-01-15T22:12:37.731Z,100392.83
2018-01-15T22:15:38.704Z,100394.14
2018-01-15T22:18:39.688Z,100381.51
2018-01-15T22:21:41.042Z,100378.79
2018-01-15T22:24:42.011Z,100391.41
2018-01-15T22:27:43.014Z,100382.17
2018-01-15T22:30:43.992Z,100370.01
2018-01-15T22:33:45.399Z,100373.04
2018-01-15T22:36:46.371Z,100366.88
2018-01-15T22:39:47.333Z,100359.83
2018-01-15T22:42:48.394Z,100359.94
2018-01-15T22:45:49.714Z,100348.33
2018-01-15T22:48:51.057Z,100348.87
2018-01-15T22:51:52.124Z,100357.16
2018-01-15T22:54:53.135Z,100355.80
2018-01-15T22:57:54.095Z,100358.06
2018-01-15T23:00:55.086Z,100352.12
2018-01-15T23:03:56.057Z,100346.43
2018-01-15T23:06:57.056Z,100340.74
2018-01-15T23:09:57.991Z,100338.91
2018-01-15T23:12:58.987Z,100348.21
2018-01-15T23:15:59.941Z,100349.04
2018-01-15T23:19:00.955Z,100352.65
2018-01-15T23:22:01.890Z,100346.49
2018-01-15T23:25:02.883Z,100348.40
2018-01-15T23:28:03.827Z,100339.44
2018-01-15T23:31:04.871Z,100340.56
2018-01-15T23:34:05.778Z,100332.39
2018-01-15T23:37:06.776Z,100339.27
2018-01-15T23:40:07.742Z,100340.75
2018-01-15T23:43:08.731Z,100335.84
2018-01-15T23:46:09.852Z,100341.05
2018-01-15T23:49:10.771Z,100334.58
2018-01-15T23:52:11.751Z,100336.48
2018-01-15T23:55:12.706Z,100328.07
2018-01-15T23:58:13.698Z,100308.22
